sensor_id;sensor_type;location;lat;lon;timestamp;P1;durP1;ratioP1;P2;durP2;ratioP2
55003;SDS011;40900;52.710;6.438;2023-05-23T00:02:07;33.25;;;21.48;;
55003;SDS011;40900;52.710;6.438;2023-05-23T00:04:33;32.17;;;20.08;;
55003;SDS011;40900;52.710;6.438;2023-05-23T00:07:02;25.60;;;18.55;;
55003;SDS011;40900;52.710;6.438;2023-05-23T00:09:28;31.88;;;20.27;;
55003;SDS011;40900;52.710;6.438;2023-05-23T00:11:54;25.80;;;20.30;;
55003;SDS011;40900;52.710;6.438;2023-05-23T00:14:20;25.33;;;18.33;;
55003;SDS011;40900;52.710;6.438;2023-05-23T00:16:45;26.67;;;18.73;;
55003;SDS011;40900;52.710;6.438;2023-05-23T00:19:13;28.40;;;19.80;;
55003;SDS011;40900;52.710;6.438;2023-05-23T00:21:44;29.90;;;18.98;;
55003;SDS011;40900;52.710;6.438;2023-05-23T00:26:42;24.48;;;16.52;;
55003;SDS011;40900;52.710;6.438;2023-05-23T00:29:08;21.17;;;14.90;;
55003;SDS011;40900;52.710;6.438;2023-05-23T00:31:39;24.30;;;15.70;;
55003;SDS011;40900;52.710;6.438;2023-05-23T00:34:06;27.98;;;17.05;;
55003;SDS011;40900;52.710;6.438;2023-05-23T00:36:32;33.13;;;18.30;;
55003;SDS011;40900;52.710;6.438;2023-05-23T00:39:01;33.55;;;19.40;;
55003;SDS011;40900;52.710;6.438;2023-05-23T00:41:28;38.83;;;18.98;;
55003;SDS011;40900;52.710;6.438;2023-05-23T00:43:54;39.42;;;19.17;;
55003;SDS011;40900;52.710;6.438;2023-05-23T00:46:22;35.83;;;19.33;;
55003;SDS011;40900;52.710;6.438;2023-05-23T00:48:48;36.90;;;19.67;;
55003;SDS011;40900;52.710;6.438;2023-05-23T00:51:14;37.20;;;20.65;;
55003;SDS011;40900;52.710;6.438;2023-05-23T00:53:40;39.17;;;19.90;;
55003;SDS011;40900;52.710;6.438;2023-05-23T00:56:07;36.10;;;19.80;;
55003;SDS011;40900;52.710;6.438;2023-05-23T00:58:34;38.03;;;19.55;;
55003;SDS011;40900;52.710;6.438;2023-05-23T01:01:00;38.47;;;19.77;;
55003;SDS011;40900;52.710;6.438;2023-05-23T01:03:25;27.92;;;16.88;;
55003;SDS011;40900;52.710;6.438;2023-05-23T01:05:52;28.15;;;16.60;;
55003;SDS011;40900;52.710;6.438;2023-05-23T01:08:20;30.40;;;16.95;;
55003;SDS011;40900;52.710;6.438;2023-05-23T01:10:46;29.27;;;17.85;;
55003;SDS011;40900;52.710;6.438;2023-05-23T01:13:23;27.48;;;15.85;;
55003;SDS011;40900;52.710;6.438;2023-05-23T01:16:28;25.02;;;16.00;;
55003;SDS011;40900;52.710;6.438;2023-05-23T01:19:46;22.52;;;13.95;;
55003;SDS011;40900;52.710;6.438;2023-05-23T01:22:11;19.83;;;12.10;;
55003;SDS011;40900;52.710;6.438;2023-05-23T01:30:03;15.88;;;12.05;;
55003;SDS011;40900;52.710;6.438;2023-05-23T01:32:31;24.17;;;12.48;;
55003;SDS011;40900;52.710;6.438;2023-05-23T01:34:57;20.30;;;12.68;;
55003;SDS011;40900;52.710;6.438;2023-05-23T01:37:24;23.00;;;13.15;;
55003;SDS011;40900;52.710;6.438;2023-05-23T01:39:50;23.48;;;14.07;;
55003;SDS011;40900;52.710;6.438;2023-05-23T01:42:16;21.85;;;13.77;;
55003;SDS011;40900;52.710;6.438;2023-05-23T01:44:43;25.60;;;15.00;;
55003;SDS011;40900;52.710;6.438;2023-05-23T01:47:10;20.00;;;13.40;;
55003;SDS011;40900;52.710;6.438;2023-05-23T01:49:37;22.35;;;13.25;;
55003;SDS011;40900;52.710;6.438;2023-05-23T01:52:04;22.65;;;12.60;;
55003;SDS011;40900;52.710;6.438;2023-05-23T01:54:34;21.17;;;14.07;;
55003;SDS011;40900;52.710;6.438;2023-05-23T01:57:01;17.23;;;12.93;;
55003;SDS011;40900;52.710;6.438;2023-05-23T01:59:28;22.00;;;12.52;;
55003;SDS011;40900;52.710;6.438;2023-05-23T02:01:54;19.20;;;12.55;;
55003;SDS011;40900;52.710;6.438;2023-05-23T02:04:20;23.33;;;11.95;;
55003;SDS011;40900;52.710;6.438;2023-05-23T02:06:46;19.55;;;11.65;;
55003;SDS011;40900;52.710;6.438;2023-05-23T02:09:12;26.13;;;12.45;;
55003;SDS011;40900;52.710;6.438;2023-05-23T02:11:37;22.70;;;12.32;;
55003;SDS011;40900;52.710;6.438;2023-05-23T02:14:03;20.40;;;11.88;;
55003;SDS011;40900;52.710;6.438;2023-05-23T02:16:29;20.45;;;12.52;;
55003;SDS011;40900;52.710;6.438;2023-05-23T02:18:55;26.80;;;13.80;;
55003;SDS011;40900;52.710;6.438;2023-05-23T02:21:21;26.08;;;12.23;;
55003;SDS011;40900;52.710;6.438;2023-05-23T02:23:47;24.15;;;11.55;;
55003;SDS011;40900;52.710;6.438;2023-05-23T02:26:13;23.20;;;12.07;;
55003;SDS011;40900;52.710;6.438;2023-05-23T02:28:39;21.63;;;11.80;;
55003;SDS011;40900;52.710;6.438;2023-05-23T02:31:05;24.73;;;12.55;;
55003;SDS011;40900;52.710;6.438;2023-05-23T02:33:31;23.83;;;12.70;;
55003;SDS011;40900;52.710;6.438;2023-05-23T02:35:56;25.70;;;12.85;;
55003;SDS011;40900;52.710;6.438;2023-05-23T02:38:22;26.65;;;13.25;;
55003;SDS011;40900;52.710;6.438;2023-05-23T02:40:48;24.70;;;12.50;;
55003;SDS011;40900;52.710;6.438;2023-05-23T02:43:15;27.58;;;13.68;;
55003;SDS011;40900;52.710;6.438;2023-05-23T02:45:41;28.10;;;13.00;;
55003;SDS011;40900;52.710;6.438;2023-05-23T02:48:07;23.83;;;13.25;;
55003;SDS011;40900;52.710;6.438;2023-05-23T02:50:32;27.05;;;13.68;;
55003;SDS011;40900;52.710;6.438;2023-05-23T02:52:58;29.42;;;13.90;;
55003;SDS011;40900;52.710;6.438;2023-05-23T02:55:24;28.88;;;13.15;;
55003;SDS011;40900;52.710;6.438;2023-05-23T02:57:50;27.75;;;13.10;;
55003;SDS011;40900;52.710;6.438;2023-05-23T03:00:15;29.75;;;13.27;;
55003;SDS011;40900;52.710;6.438;2023-05-23T03:02:41;26.45;;;13.00;;
55003;SDS011;40900;52.710;6.438;2023-05-23T03:05:07;27.65;;;12.13;;
55003;SDS011;40900;52.710;6.438;2023-05-23T03:07:33;30.02;;;13.02;;
55003;SDS011;40900;52.710;6.438;2023-05-23T03:09:59;27.13;;;12.23;;
55003;SDS011;40900;52.710;6.438;2023-05-23T03:12:26;27.00;;;12.77;;
55003;SDS011;40900;52.710;6.438;2023-05-23T03:14:52;28.73;;;11.15;;
55003;SDS011;40900;52.710;6.438;2023-05-23T03:17:18;26.35;;;11.82;;
55003;SDS011;40900;52.710;6.438;2023-05-23T03:19:44;22.35;;;11.07;;
55003;SDS011;40900;52.710;6.438;2023-05-23T03:22:10;27.60;;;11.18;;
55003;SDS011;40900;52.710;6.438;2023-05-23T03:24:35;29.42;;;11.68;;
55003;SDS011;40900;52.710;6.438;2023-05-23T03:27:01;27.30;;;11.48;;
55003;SDS011;40900;52.710;6.438;2023-05-23T03:29:28;24.27;;;10.55;;
55003;SDS011;40900;52.710;6.438;2023-05-23T03:31:53;24.52;;;10.98;;
55003;SDS011;40900;52.710;6.438;2023-05-23T03:34:19;28.73;;;11.73;;
55003;SDS011;40900;52.710;6.438;2023-05-23T03:36:48;26.48;;;10.48;;
55003;SDS011;40900;52.710;6.438;2023-05-23T03:39:13;28.02;;;10.65;;
55003;SDS011;40900;52.710;6.438;2023-05-23T03:41:40;24.85;;;10.25;;
55003;SDS011;40900;52.710;6.438;2023-05-23T03:44:05;26.48;;;11.68;;
55003;SDS011;40900;52.710;6.438;2023-05-23T03:46:32;23.88;;;9.48;;
55003;SDS011;40900;52.710;6.438;2023-05-23T03:48:57;25.42;;;10.20;;
55003;SDS011;40900;52.710;6.438;2023-05-23T03:51:23;25.90;;;10.40;;
55003;SDS011;40900;52.710;6.438;2023-05-23T03:53:49;24.75;;;10.07;;
55003;SDS011;40900;52.710;6.438;2023-05-23T03:56:14;22.85;;;9.90;;
55003;SDS011;40900;52.710;6.438;2023-05-23T03:58:40;23.27;;;10.32;;
55003;SDS011;40900;52.710;6.438;2023-05-23T04:01:06;30.55;;;10.52;;
55003;SDS011;40900;52.710;6.438;2023-05-23T04:03:33;22.08;;;9.88;;
55003;SDS011;40900;52.710;6.438;2023-05-23T04:05:59;26.17;;;10.23;;
55003;SDS011;40900;52.710;6.438;2023-05-23T04:08:25;27.50;;;10.65;;
55003;SDS011;40900;52.710;6.438;2023-05-23T04:10:53;21.73;;;9.90;;
55003;SDS011;40900;52.710;6.438;2023-05-23T04:13:19;27.50;;;9.93;;
55003;SDS011;40900;52.710;6.438;2023-05-23T04:15:45;23.05;;;9.85;;
55003;SDS011;40900;52.710;6.438;2023-05-23T04:18:12;21.25;;;8.95;;
55003;SDS011;40900;52.710;6.438;2023-05-23T04:20:39;24.15;;;9.07;;
55003;SDS011;40900;52.710;6.438;2023-05-23T04:23:05;23.23;;;9.25;;
55003;SDS011;40900;52.710;6.438;2023-05-23T04:25:31;22.63;;;9.25;;
55003;SDS011;40900;52.710;6.438;2023-05-23T04:27:58;20.88;;;9.32;;
55003;SDS011;40900;52.710;6.438;2023-05-23T04:30:25;21.92;;;7.72;;
55003;SDS011;40900;52.710;6.438;2023-05-23T04:32:51;23.08;;;8.52;;
55003;SDS011;40900;52.710;6.438;2023-05-23T04:35:17;20.15;;;7.55;;
55003;SDS011;40900;52.710;6.438;2023-05-23T04:37:43;23.65;;;7.32;;
55003;SDS011;40900;52.710;6.438;2023-05-23T04:40:09;22.77;;;6.97;;
55003;SDS011;40900;52.710;6.438;2023-05-23T04:42:37;17.40;;;6.22;;
55003;SDS011;40900;52.710;6.438;2023-05-23T04:45:06;18.10;;;6.30;;
55003;SDS011;40900;52.710;6.438;2023-05-23T04:47:33;23.00;;;6.85;;
55003;SDS011;40900;52.710;6.438;2023-05-23T04:49:59;23.00;;;6.95;;
55003;SDS011;40900;52.710;6.438;2023-05-23T04:52:26;22.30;;;7.32;;
55003;SDS011;40900;52.710;6.438;2023-05-23T04:54:52;19.13;;;5.60;;
55003;SDS011;40900;52.710;6.438;2023-05-23T04:57:18;19.08;;;5.72;;
55003;SDS011;40900;52.710;6.438;2023-05-23T04:59:44;14.48;;;6.00;;
55003;SDS011;40900;52.710;6.438;2023-05-23T05:02:10;15.23;;;5.35;;
55003;SDS011;40900;52.710;6.438;2023-05-23T05:04:36;18.80;;;5.88;;
55003;SDS011;40900;52.710;6.438;2023-05-23T05:07:01;13.40;;;5.90;;
55003;SDS011;40900;52.710;6.438;2023-05-23T05:09:29;13.70;;;6.10;;
55003;SDS011;40900;52.710;6.438;2023-05-23T05:11:55;15.50;;;6.03;;
55003;SDS011;40900;52.710;6.438;2023-05-23T05:14:22;17.05;;;6.35;;
55003;SDS011;40900;52.710;6.438;2023-05-23T05:16:47;19.30;;;6.70;;
55003;SDS011;40900;52.710;6.438;2023-05-23T05:19:14;16.60;;;6.88;;
55003;SDS011;40900;52.710;6.438;2023-05-23T05:21:40;16.27;;;6.45;;
55003;SDS011;40900;52.710;6.438;2023-05-23T05:24:06;20.08;;;6.70;;
55003;SDS011;40900;52.710;6.438;2023-05-23T05:26:34;20.50;;;6.97;;
55003;SDS011;40900;52.710;6.438;2023-05-23T05:29:00;20.77;;;7.28;;
55003;SDS011;40900;52.710;6.438;2023-05-23T05:31:26;19.88;;;6.95;;
55003;SDS011;40900;52.710;6.438;2023-05-23T05:33:53;17.23;;;6.85;;
55003;SDS011;40900;52.710;6.438;2023-05-23T05:36:19;19.63;;;7.03;;
55003;SDS011;40900;52.710;6.438;2023-05-23T05:38:45;21.40;;;7.35;;
55003;SDS011;40900;52.710;6.438;2023-05-23T05:41:12;21.73;;;6.85;;
55003;SDS011;40900;52.710;6.438;2023-05-23T05:43:37;20.50;;;7.05;;
55003;SDS011;40900;52.710;6.438;2023-05-23T05:46:03;19.30;;;6.93;;
55003;SDS011;40900;52.710;6.438;2023-05-23T05:48:29;18.27;;;7.13;;
55003;SDS011;40900;52.710;6.438;2023-05-23T05:50:55;19.20;;;7.03;;
55003;SDS011;40900;52.710;6.438;2023-05-23T05:53:20;22.63;;;6.70;;
55003;SDS011;40900;52.710;6.438;2023-05-23T05:55:46;18.52;;;6.68;;
55003;SDS011;40900;52.710;6.438;2023-05-23T05:58:12;17.38;;;7.30;;
55003;SDS011;40900;52.710;6.438;2023-05-23T06:00:38;18.80;;;6.60;;
55003;SDS011;40900;52.710;6.438;2023-05-23T06:03:06;15.90;;;6.03;;
55003;SDS011;40900;52.710;6.438;2023-05-23T06:05:33;16.65;;;6.30;;
55003;SDS011;40900;52.710;6.438;2023-05-23T06:07:58;14.10;;;5.57;;
55003;SDS011;40900;52.710;6.438;2023-05-23T06:10:24;17.23;;;5.70;;
55003;SDS011;40900;52.710;6.438;2023-05-23T06:12:50;22.33;;;7.22;;
55003;SDS011;40900;52.710;6.438;2023-05-23T06:15:16;17.02;;;6.80;;
55003;SDS011;40900;52.710;6.438;2023-05-23T06:17:42;15.93;;;6.90;;
55003;SDS011;40900;52.710;6.438;2023-05-23T06:20:09;13.50;;;5.90;;
55003;SDS011;40900;52.710;6.438;2023-05-23T06:22:35;18.30;;;6.72;;
55003;SDS011;40900;52.710;6.438;2023-05-23T06:25:01;16.30;;;6.22;;
55003;SDS011;40900;52.710;6.438;2023-05-23T06:27:27;19.92;;;6.45;;
55003;SDS011;40900;52.710;6.438;2023-05-23T06:29:53;20.85;;;6.13;;
55003;SDS011;40900;52.710;6.438;2023-05-23T06:32:19;21.67;;;6.65;;
55003;SDS011;40900;52.710;6.438;2023-05-23T06:34:44;18.60;;;6.03;;
55003;SDS011;40900;52.710;6.438;2023-05-23T06:37:10;17.88;;;7.10;;
55003;SDS011;40900;52.710;6.438;2023-05-23T06:39:36;24.13;;;7.82;;
55003;SDS011;40900;52.710;6.438;2023-05-23T06:42:01;14.23;;;5.53;;
55003;SDS011;40900;52.710;6.438;2023-05-23T06:44:28;14.30;;;4.88;;
55003;SDS011;40900;52.710;6.438;2023-05-23T06:46:54;13.85;;;4.93;;
55003;SDS011;40900;52.710;6.438;2023-05-23T06:49:22;13.45;;;5.03;;
55003;SDS011;40900;52.710;6.438;2023-05-23T06:51:48;13.60;;;4.68;;
55003;SDS011;40900;52.710;6.438;2023-05-23T06:54:14;17.88;;;5.63;;
55003;SDS011;40900;52.710;6.438;2023-05-23T06:56:40;18.67;;;5.40;;
55003;SDS011;40900;52.710;6.438;2023-05-23T06:59:06;14.38;;;5.22;;
55003;SDS011;40900;52.710;6.438;2023-05-23T07:01:31;17.75;;;5.43;;
55003;SDS011;40900;52.710;6.438;2023-05-23T07:03:57;16.08;;;5.35;;
55003;SDS011;40900;52.710;6.438;2023-05-23T07:06:23;15.40;;;4.53;;
55003;SDS011;40900;52.710;6.438;2023-05-23T07:08:51;17.38;;;4.55;;
55003;SDS011;40900;52.710;6.438;2023-05-23T07:11:17;14.68;;;4.50;;
55003;SDS011;40900;52.710;6.438;2023-05-23T07:13:44;16.13;;;3.95;;
55003;SDS011;40900;52.710;6.438;2023-05-23T07:16:10;17.20;;;4.57;;
55003;SDS011;40900;52.710;6.438;2023-05-23T07:18:36;17.73;;;4.80;;
55003;SDS011;40900;52.710;6.438;2023-05-23T07:21:01;15.70;;;4.47;;
55003;SDS011;40900;52.710;6.438;2023-05-23T07:23:27;17.83;;;4.10;;
55003;SDS011;40900;52.710;6.438;2023-05-23T07:25:58;11.95;;;4.20;;
55003;SDS011;40900;52.710;6.438;2023-05-23T07:28:24;14.18;;;4.43;;
55003;SDS011;40900;52.710;6.438;2023-05-23T07:30:50;18.42;;;4.18;;
55003;SDS011;40900;52.710;6.438;2023-05-23T07:33:15;16.45;;;4.57;;
55003;SDS011;40900;52.710;6.438;2023-05-23T07:35:42;15.85;;;4.10;;
55003;SDS011;40900;52.710;6.438;2023-05-23T07:38:08;18.50;;;5.10;;
55003;SDS011;40900;52.710;6.438;2023-05-23T07:40:34;20.88;;;4.60;;
55003;SDS011;40900;52.710;6.438;2023-05-23T07:43:02;29.25;;;4.40;;
55003;SDS011;40900;52.710;6.438;2023-05-23T07:45:29;16.70;;;4.43;;
55003;SDS011;40900;52.710;6.438;2023-05-23T07:47:55;25.30;;;5.18;;
55003;SDS011;40900;52.710;6.438;2023-05-23T07:50:20;18.48;;;4.63;;
55003;SDS011;40900;52.710;6.438;2023-05-23T07:52:46;21.17;;;4.70;;
55003;SDS011;40900;52.710;6.438;2023-05-23T07:55:12;17.02;;;4.93;;
55003;SDS011;40900;52.710;6.438;2023-05-23T07:57:38;20.23;;;4.68;;
55003;SDS011;40900;52.710;6.438;2023-05-23T08:00:04;18.38;;;4.95;;
55003;SDS011;40900;52.710;6.438;2023-05-23T08:02:31;17.60;;;4.60;;
55003;SDS011;40900;52.710;6.438;2023-05-23T08:04:56;26.90;;;4.22;;
55003;SDS011;40900;52.710;6.438;2023-05-23T08:07:23;20.35;;;4.45;;
55003;SDS011;40900;52.710;6.438;2023-05-23T08:09:49;22.60;;;5.45;;
55003;SDS011;40900;52.710;6.438;2023-05-23T08:12:15;20.48;;;4.75;;
55003;SDS011;40900;52.710;6.438;2023-05-23T08:14:41;18.55;;;4.97;;
55003;SDS011;40900;52.710;6.438;2023-05-23T08:17:06;20.65;;;4.65;;
55003;SDS011;40900;52.710;6.438;2023-05-23T08:19:32;23.42;;;5.05;;
55003;SDS011;40900;52.710;6.438;2023-05-23T08:21:58;26.00;;;5.43;;
55003;SDS011;40900;52.710;6.438;2023-05-23T08:24:23;14.93;;;4.47;;
55003;SDS011;40900;52.710;6.438;2023-05-23T08:26:49;15.82;;;4.22;;
55003;SDS011;40900;52.710;6.438;2023-05-23T08:29:15;20.30;;;4.35;;
55003;SDS011;40900;52.710;6.438;2023-05-23T08:31:41;22.10;;;4.07;;
55003;SDS011;40900;52.710;6.438;2023-05-23T08:34:06;19.17;;;3.70;;
55003;SDS011;40900;52.710;6.438;2023-05-23T08:36:32;20.17;;;4.50;;
55003;SDS011;40900;52.710;6.438;2023-05-23T08:39:00;18.10;;;4.60;;
55003;SDS011;40900;52.710;6.438;2023-05-23T08:41:28;15.68;;;4.50;;
55003;SDS011;40900;52.710;6.438;2023-05-23T08:43:54;21.83;;;4.50;;
55003;SDS011;40900;52.710;6.438;2023-05-23T08:46:20;22.70;;;4.78;;
55003;SDS011;40900;52.710;6.438;2023-05-23T08:48:51;18.13;;;4.97;;
55003;SDS011;40900;52.710;6.438;2023-05-23T08:51:20;17.58;;;4.78;;
55003;SDS011;40900;52.710;6.438;2023-05-23T08:53:47;22.75;;;3.92;;
55003;SDS011;40900;52.710;6.438;2023-05-23T08:56:14;21.10;;;4.30;;
55003;SDS011;40900;52.710;6.438;2023-05-23T08:58:43;22.23;;;5.00;;
55003;SDS011;40900;52.710;6.438;2023-05-23T09:01:12;25.15;;;4.70;;
55003;SDS011;40900;52.710;6.438;2023-05-23T09:03:38;21.42;;;5.70;;
55003;SDS011;40900;52.710;6.438;2023-05-23T09:06:06;18.70;;;4.95;;
55003;SDS011;40900;52.710;6.438;2023-05-23T09:08:33;23.60;;;4.50;;
55003;SDS011;40900;52.710;6.438;2023-05-23T09:10:59;17.88;;;4.47;;
55003;SDS011;40900;52.710;6.438;2023-05-23T09:13:30;19.05;;;4.95;;
55003;SDS011;40900;52.710;6.438;2023-05-23T09:18:32;25.65;;;4.68;;
55003;SDS011;40900;52.710;6.438;2023-05-23T09:21:02;17.98;;;4.85;;
55003;SDS011;40900;52.710;6.438;2023-05-23T09:23:31;16.77;;;4.43;;
55003;SDS011;40900;52.710;6.438;2023-05-23T09:26:07;18.85;;;5.32;;
55003;SDS011;40900;52.710;6.438;2023-05-23T09:28:35;14.50;;;3.80;;
55003;SDS011;40900;52.710;6.438;2023-05-23T09:31:03;13.82;;;4.60;;
55003;SDS011;40900;52.710;6.438;2023-05-23T09:33:39;15.75;;;4.25;;
55003;SDS011;40900;52.710;6.438;2023-05-23T09:36:12;14.85;;;4.18;;
55003;SDS011;40900;52.710;6.438;2023-05-23T09:38:39;16.60;;;4.47;;
55003;SDS011;40900;52.710;6.438;2023-05-23T09:41:06;14.80;;;4.00;;
55003;SDS011;40900;52.710;6.438;2023-05-23T09:43:33;14.82;;;4.00;;
55003;SDS011;40900;52.710;6.438;2023-05-23T09:46:11;11.20;;;4.28;;
55003;SDS011;40900;52.710;6.438;2023-05-23T09:48:37;18.38;;;4.53;;
55003;SDS011;40900;52.710;6.438;2023-05-23T09:51:03;14.35;;;3.95;;
55003;SDS011;40900;52.710;6.438;2023-05-23T09:53:30;20.63;;;4.65;;
55003;SDS011;40900;52.710;6.438;2023-05-23T09:55:57;19.48;;;4.90;;
55003;SDS011;40900;52.710;6.438;2023-05-23T09:58:24;16.23;;;4.25;;
55003;SDS011;40900;52.710;6.438;2023-05-23T10:00:53;17.42;;;4.05;;
55003;SDS011;40900;52.710;6.438;2023-05-23T10:03:34;15.63;;;4.30;;
55003;SDS011;40900;52.710;6.438;2023-05-23T10:06:28;15.27;;;4.43;;
55003;SDS011;40900;52.710;6.438;2023-05-23T10:09:00;13.77;;;3.80;;
55003;SDS011;40900;52.710;6.438;2023-05-23T10:19:52;16.08;;;4.60;;
55003;SDS011;40900;52.710;6.438;2023-05-23T10:22:24;17.73;;;4.35;;
55003;SDS011;40900;52.710;6.438;2023-05-23T10:24:51;20.90;;;3.70;;
55003;SDS011;40900;52.710;6.438;2023-05-23T10:27:17;13.80;;;4.18;;
55003;SDS011;40900;52.710;6.438;2023-05-23T10:29:43;13.55;;;3.83;;
55003;SDS011;40900;52.710;6.438;2023-05-23T10:32:10;14.40;;;3.97;;
55003;SDS011;40900;52.710;6.438;2023-05-23T10:34:45;10.38;;;3.38;;
55003;SDS011;40900;52.710;6.438;2023-05-23T10:37:28;12.60;;;3.75;;
55003;SDS011;40900;52.710;6.438;2023-05-23T10:46:07;15.43;;;4.18;;
55003;SDS011;40900;52.710;6.438;2023-05-23T10:48:33;12.70;;;3.97;;
55003;SDS011;40900;52.710;6.438;2023-05-23T10:51:05;12.25;;;3.40;;
55003;SDS011;40900;52.710;6.438;2023-05-23T10:53:36;14.63;;;4.25;;
55003;SDS011;40900;52.710;6.438;2023-05-23T10:56:04;15.60;;;4.10;;
55003;SDS011;40900;52.710;6.438;2023-05-23T10:58:32;16.75;;;4.03;;
55003;SDS011;40900;52.710;6.438;2023-05-23T11:01:00;15.45;;;3.63;;
55003;SDS011;40900;52.710;6.438;2023-05-23T11:03:50;13.20;;;3.80;;
55003;SDS011;40900;52.710;6.438;2023-05-23T11:09:10;14.73;;;4.00;;
55003;SDS011;40900;52.710;6.438;2023-05-23T11:14:18;13.32;;;3.53;;
55003;SDS011;40900;52.710;6.438;2023-05-23T11:16:45;15.35;;;4.03;;
55003;SDS011;40900;52.710;6.438;2023-05-23T11:21:51;17.83;;;3.63;;
55003;SDS011;40900;52.710;6.438;2023-05-23T11:24:18;14.27;;;3.60;;
55003;SDS011;40900;52.710;6.438;2023-05-23T11:26:51;20.55;;;3.80;;
55003;SDS011;40900;52.710;6.438;2023-05-23T11:29:27;9.75;;;3.25;;
55003;SDS011;40900;52.710;6.438;2023-05-23T11:31:53;17.08;;;4.07;;
55003;SDS011;40900;52.710;6.438;2023-05-23T11:34:24;12.63;;;3.15;;
55003;SDS011;40900;52.710;6.438;2023-05-23T11:36:53;15.93;;;3.80;;
55003;SDS011;40900;52.710;6.438;2023-05-23T11:39:20;13.50;;;3.42;;
55003;SDS011;40900;52.710;6.438;2023-05-23T11:41:57;12.20;;;4.32;;
55003;SDS011;40900;52.710;6.438;2023-05-23T11:44:26;13.40;;;3.45;;
55003;SDS011;40900;52.710;6.438;2023-05-23T11:46:59;15.70;;;3.55;;
55003;SDS011;40900;52.710;6.438;2023-05-23T11:49:27;12.82;;;3.30;;
55003;SDS011;40900;52.710;6.438;2023-05-23T11:51:56;12.80;;;3.40;;
55003;SDS011;40900;52.710;6.438;2023-05-23T11:54:23;14.57;;;3.47;;
55003;SDS011;40900;52.710;6.438;2023-05-23T11:56:50;12.73;;;3.85;;
55003;SDS011;40900;52.710;6.438;2023-05-23T11:59:16;14.45;;;3.95;;
55003;SDS011;40900;52.710;6.438;2023-05-23T12:01:42;15.75;;;3.38;;
55003;SDS011;40900;52.710;6.438;2023-05-23T12:04:09;14.77;;;3.42;;
55003;SDS011;40900;52.710;6.438;2023-05-23T12:06:39;12.57;;;3.58;;
55003;SDS011;40900;52.710;6.438;2023-05-23T12:09:05;15.15;;;3.78;;
55003;SDS011;40900;52.710;6.438;2023-05-23T12:11:35;11.90;;;3.35;;
55003;SDS011;40900;52.710;6.438;2023-05-23T12:14:01;12.35;;;3.97;;
55003;SDS011;40900;52.710;6.438;2023-05-23T12:16:31;16.15;;;3.65;;
55003;SDS011;40900;52.710;6.438;2023-05-23T12:18:58;12.57;;;3.03;;
55003;SDS011;40900;52.710;6.438;2023-05-23T12:21:25;13.35;;;3.17;;
55003;SDS011;40900;52.710;6.438;2023-05-23T12:24:13;10.73;;;3.28;;
55003;SDS011;40900;52.710;6.438;2023-05-23T12:26:52;13.60;;;3.57;;
55003;SDS011;40900;52.710;6.438;2023-05-23T12:29:28;12.25;;;3.10;;
55003;SDS011;40900;52.710;6.438;2023-05-23T12:31:57;9.52;;;2.65;;
55003;SDS011;40900;52.710;6.438;2023-05-23T12:34:25;15.77;;;3.22;;
55003;SDS011;40900;52.710;6.438;2023-05-23T12:37:00;12.65;;;3.35;;
55003;SDS011;40900;52.710;6.438;2023-05-23T12:39:30;15.52;;;3.17;;
55003;SDS011;40900;52.710;6.438;2023-05-23T12:42:07;16.13;;;3.67;;
55003;SDS011;40900;52.710;6.438;2023-05-23T12:44:34;14.00;;;3.47;;
55003;SDS011;40900;52.710;6.438;2023-05-23T12:47:01;11.65;;;3.00;;
55003;SDS011;40900;52.710;6.438;2023-05-23T12:49:27;11.77;;;3.40;;
55003;SDS011;40900;52.710;6.438;2023-05-23T12:51:53;11.82;;;3.38;;
55003;SDS011;40900;52.710;6.438;2023-05-23T12:54:18;10.48;;;3.20;;
55003;SDS011;40900;52.710;6.438;2023-05-23T12:56:44;9.93;;;2.95;;
55003;SDS011;40900;52.710;6.438;2023-05-23T12:59:10;13.73;;;3.15;;
55003;SDS011;40900;52.710;6.438;2023-05-23T13:01:36;12.02;;;3.22;;
55003;SDS011;40900;52.710;6.438;2023-05-23T13:04:01;14.00;;;2.90;;
55003;SDS011;40900;52.710;6.438;2023-05-23T13:06:27;10.85;;;3.05;;
55003;SDS011;40900;52.710;6.438;2023-05-23T13:08:53;12.85;;;3.20;;
55003;SDS011;40900;52.710;6.438;2023-05-23T13:11:19;12.20;;;3.28;;
55003;SDS011;40900;52.710;6.438;2023-05-23T13:13:49;12.25;;;3.20;;
55003;SDS011;40900;52.710;6.438;2023-05-23T13:16:16;11.02;;;2.95;;
55003;SDS011;40900;52.710;6.438;2023-05-23T13:18:41;11.45;;;3.22;;
55003;SDS011;40900;52.710;6.438;2023-05-23T13:21:07;16.48;;;4.05;;
55003;SDS011;40900;52.710;6.438;2023-05-23T13:23:33;7.88;;;2.60;;
55003;SDS011;40900;52.710;6.438;2023-05-23T13:26:00;9.55;;;2.80;;
55003;SDS011;40900;52.710;6.438;2023-05-23T13:28:27;11.70;;;2.75;;
55003;SDS011;40900;52.710;6.438;2023-05-23T13:30:52;10.85;;;3.47;;
55003;SDS011;40900;52.710;6.438;2023-05-23T13:33:18;17.15;;;3.15;;
55003;SDS011;40900;52.710;6.438;2023-05-23T13:35:46;11.00;;;3.47;;
55003;SDS011;40900;52.710;6.438;2023-05-23T13:38:13;10.10;;;2.83;;
55003;SDS011;40900;52.710;6.438;2023-05-23T13:40:41;14.80;;;3.92;;
55003;SDS011;40900;52.710;6.438;2023-05-23T13:43:07;13.13;;;3.22;;
55003;SDS011;40900;52.710;6.438;2023-05-23T13:45:33;11.18;;;3.03;;
55003;SDS011;40900;52.710;6.438;2023-05-23T13:47:58;16.88;;;3.30;;
55003;SDS011;40900;52.710;6.438;2023-05-23T13:50:24;15.48;;;3.85;;
55003;SDS011;40900;52.710;6.438;2023-05-23T13:52:50;15.13;;;3.15;;
55003;SDS011;40900;52.710;6.438;2023-05-23T13:55:16;14.52;;;3.50;;
55003;SDS011;40900;52.710;6.438;2023-05-23T13:57:42;12.95;;;3.13;;
55003;SDS011;40900;52.710;6.438;2023-05-23T14:00:08;12.35;;;3.10;;
55003;SDS011;40900;52.710;6.438;2023-05-23T14:02:36;9.00;;;3.00;;
55003;SDS011;40900;52.710;6.438;2023-05-23T14:05:02;11.85;;;2.95;;
55003;SDS011;40900;52.710;6.438;2023-05-23T14:07:28;9.05;;;3.03;;
55003;SDS011;40900;52.710;6.438;2023-05-23T14:09:55;9.52;;;2.72;;
55003;SDS011;40900;52.710;6.438;2023-05-23T14:12:21;8.90;;;2.88;;
55003;SDS011;40900;52.710;6.438;2023-05-23T14:14:47;14.73;;;2.47;;
55003;SDS011;40900;52.710;6.438;2023-05-23T14:17:16;15.13;;;3.38;;
55003;SDS011;40900;52.710;6.438;2023-05-23T14:19:42;10.85;;;3.20;;
55003;SDS011;40900;52.710;6.438;2023-05-23T14:22:07;7.47;;;2.40;;
55003;SDS011;40900;52.710;6.438;2023-05-23T14:24:33;14.07;;;2.70;;
55003;SDS011;40900;52.710;6.438;2023-05-23T14:26:59;11.38;;;2.70;;
55003;SDS011;40900;52.710;6.438;2023-05-23T14:29:26;21.80;;;3.25;;
55003;SDS011;40900;52.710;6.438;2023-05-23T14:31:52;11.45;;;2.90;;
55003;SDS011;40900;52.710;6.438;2023-05-23T14:34:18;10.80;;;3.13;;
55003;SDS011;40900;52.710;6.438;2023-05-23T14:36:43;10.80;;;3.10;;
55003;SDS011;40900;52.710;6.438;2023-05-23T14:39:09;13.65;;;3.30;;
55003;SDS011;40900;52.710;6.438;2023-05-23T14:41:35;16.08;;;2.90;;
55003;SDS011;40900;52.710;6.438;2023-05-23T14:44:02;12.13;;;2.95;;
55003;SDS011;40900;52.710;6.438;2023-05-23T14:46:28;13.60;;;3.20;;
55003;SDS011;40900;52.710;6.438;2023-05-23T14:48:53;9.75;;;2.72;;
55003;SDS011;40900;52.710;6.438;2023-05-23T14:51:19;10.90;;;2.72;;
55003;SDS011;40900;52.710;6.438;2023-05-23T14:53:45;13.68;;;3.13;;
55003;SDS011;40900;52.710;6.438;2023-05-23T14:56:11;12.75;;;3.22;;
55003;SDS011;40900;52.710;6.438;2023-05-23T14:58:37;10.90;;;2.97;;
55003;SDS011;40900;52.710;6.438;2023-05-23T15:01:05;10.82;;;2.63;;
55003;SDS011;40900;52.710;6.438;2023-05-23T15:03:31;9.95;;;2.95;;
55003;SDS011;40900;52.710;6.438;2023-05-23T15:05:57;14.32;;;3.42;;